Sea Jet — WDD2601 — position and weather

sailwx.info

Track history (hours):
 
Tides and Currents Weather Stations Pressure Air Temp Water Temp Dewpoint Dewpoint Depression Visibility Wind Speed Wind Dir Waves Ship Positions

Sea Jet

Owner: Cross Sound Ferry Services, Inc., New London, CT. More information available from US FCC via Universal Licensing System and Coast Guard Vessel Documentation Center.

Last reported at 2015-Aug-01 15:33 UTC. Time now 2015-Aug-01 16:13 UTC.
Position N 41°21' W 072°06'.

Length 33 m.

Type: High speed craft. MMSI: 367117430.

Date/timePositionNaut miles runAvg speedWind from/ knotsBaromVisibWave heightAir tempDewpointWater temp
2015-Aug-01 15:33N 41°21' W 072°06'2 1.7
2015-Aug-01 14:34N 41°20' W 072°05'9 9.3
2015-Aug-01 13:34N 41°12' W 072°12'9 9.4
2015-Aug-01 12:34N 41°20' W 072°05'9 8.9
2015-Aug-01 11:34N 41°12' W 072°11'1010.0
2015-Aug-01 10:34N 41°21' W 072°06'1 0.1
2015-Aug-01 00:34N 41°20' W 072°05'1010.1
2015-Jul-31 23:34N 41°12' W 072°13'10 9.9
2015-Jul-31 22:34N 41°20' W 072°05'9 9.2
2015-Jul-31 21:34N 41°12' W 072°12'1 0.1
2015-Jul-31 12:26N 41°13' W 072°11'5 5.4
2015-Jul-31 11:34N 41°16' W 072°06'2 0.2
2015-Jul-31 01:34N 41°18' W 072°05'2423.6
2015-Jul-31 00:34N 41°15' W 071°34'7 7.4
2015-Jul-30 23:34N 41°15' W 071°44'1817.7
2015-Jul-30 22:33N 41°21' W 072°06'1616.5
2015-Jul-30 21:34N 41°17' W 071°44'1010.4
2015-Jul-30 20:34N 41°11' W 071°33'2524.9
2015-Jul-30 19:34N 41°19' W 072°05'7 6.6
2015-Jul-30 18:34N 41°18' W 071°56'1918.5
2015-Jul-30 17:33N 41°10' W 071°33'1616.2
2015-Jul-30 16:34N 41°15' W 071°54'1110.9
2015-Jul-30 15:33N 41°21' W 072°06'1 1.5
2015-Jul-30 14:34N 41°20' W 072°05'1010.3
2015-Jul-30 13:34N 41°11' W 072°13'1010.3
2015-Jul-30 12:34N 41°20' W 072°05'7 7.0
2015-Jul-30 11:34N 41°14' W 072°10'8 8.0
2015-Jul-30 10:33N 41°21' W 072°06'1 0.1
2015-Jul-30 00:34N 41°21' W 072°05'7 7.2
2015-Jul-29 23:34N 41°14' W 072°10'7 7.0
2015-Jul-29 22:33N 41°20' W 072°05'9 9.5
2015-Jul-29 21:33N 41°12' W 072°12'1010.2
2015-Jul-29 20:33N 41°21' W 072°06'0 0.0
2015-Jul-29 19:33N 41°21' W 072°06'0 0.0
2015-Jul-29 18:33N 41°21' W 072°06'1312.9
2015-Jul-29 17:33N 41°09' W 072°12'1312.6
2015-Jul-29 16:33N 41°21' W 072°05'0 0.4
2015-Jul-29 15:33N 41°21' W 072°06'7 6.9
2015-Jul-29 14:34N 41°15' W 072°08'2 1.9
2015-Jul-29 13:34N 41°16' W 072°07'2 1.9
2015-Jul-29 12:33N 41°18' W 072°05'8 8.1
2015-Jul-29 11:34N 41°12' W 072°12'1110.8
2015-Jul-29 10:33N 41°21' W 072°06'1 0.1
2015-Jul-29 00:33N 41°20' W 072°05'1010.4
2015-Jul-28 23:34N 41°12' W 072°13'1010.3
2015-Jul-28 22:34N 41°20' W 072°05'9 8.6
2015-Jul-28 21:34N 41°13' W 072°11'9 9.4
2015-Jul-28 20:34N 41°21' W 072°06'1 0.2
2015-Jul-28 14:34N 41°20' W 072°05'9 9.1
2015-Jul-28 13:34N 41°13' W 072°12'9 9.3
2015-Jul-28 12:34N 41°20' W 072°05'9 8.8
2015-Jul-28 11:34N 41°13' W 072°12'9 0.8
2015-Jul-28 00:33N 41°20' W 072°05'1010.0
2015-Jul-27 23:34N 41°12' W 072°12'1010.0
2015-Jul-27 22:33N 41°20' W 072°05'9 8.8
2015-Jul-27 21:34N 41°13' W 072°11'9 9.5
2015-Jul-27 20:33N 41°21' W 072°06'0 0.0
2015-Jul-27 19:34N 41°21' W 072°06'4 0.8
2015-Jul-27 14:34N 41°17' W 072°05'5 4.8
2015-Jul-27 13:29N 41°14' W 072°10'8 8.2
2015-Jul-27 12:34N 41°20' W 072°05'7 0.6
2015-Jul-27 00:16N 41°14' W 072°10'  
2015-Jul-24 12:16N 41°21' W 072°06'0 0.0
2015-Jul-24 11:34N 41°21' W 072°06'0 0.0
2015-Jul-24 10:33N 41°21' W 072°06'1 0.1
2015-Jul-24 00:34N 41°20' W 072°05'9 9.4
2015-Jul-23 23:34N 41°12' W 072°12'9 9.3
2015-Jul-23 22:34N 41°20' W 072°05'7 7.3
2015-Jul-23 21:34N 41°14' W 072°10'8 8.4
2015-Jul-23 20:33N 41°21' W 072°06'0 0.0
2015-Jul-23 19:33N 41°21' W 072°06'0 0.0
2015-Jul-23 18:33N 41°21' W 072°06'0 0.0
2015-Jul-23 17:34N 41°21' W 072°06'0 0.0
2015-Jul-23 16:34N 41°21' W 072°06'0 0.0
2015-Jul-23 15:34N 41°21' W 072°06'2 2.5
2015-Jul-23 14:34N 41°19' W 072°05'8 8.3
2015-Jul-23 13:34N 41°13' W 072°12'8 8.1
2015-Jul-23 12:34N 41°19' W 072°05'7 7.5
2015-Jul-23 11:34N 41°13' W 072°11'9 9.5
2015-Jul-23 10:33N 41°21' W 072°06'1 0.1
2015-Jul-23 00:33N 41°20' W 072°05'9 9.3
2015-Jul-22 23:34N 41°12' W 072°11'9 9.4
2015-Jul-22 22:33N 41°20' W 072°05'10 9.6
2015-Jul-22 21:34N 41°12' W 072°12'1010.2
2015-Jul-22 20:33N 41°21' W 072°06'0 0.0
2015-Jul-22 19:33N 41°21' W 072°06'2 1.9
2015-Jul-22 18:34N 41°20' W 072°05'1110.9
2015-Jul-22 17:34N 41°09' W 072°09'1312.6
2015-Jul-22 16:33N 41°21' W 072°05'  
Track history (hours):
 
Tides and Currents Weather Stations Pressure Air Temp Water Temp Dewpoint Dewpoint Depression Visibility Wind Speed Wind Dir Waves Ship Positions

Sea Jet

Owner: Cross Sound Ferry Services, Inc., New London, CT. More information available from US FCC via Universal Licensing System and Coast Guard Vessel Documentation Center.

Last reported at 2015-Aug-01 15:33 UTC. Time now 2015-Aug-01 16:13 UTC.
Position N 41°21' W 072°06'.

Length 33 m.

Type: High speed craft. MMSI: 367117430.

Date/timePositionNaut miles runAvg speedWind from/ knotsBaromVisibWave heightAir tempDewpointWater temp
2015-Aug-01 15:33N 41°21' W 072°06'2 1.7
2015-Aug-01 14:34N 41°20' W 072°05'9 9.3
2015-Aug-01 13:34N 41°12' W 072°12'9 9.4
2015-Aug-01 12:34N 41°20' W 072°05'9 8.9
2015-Aug-01 11:34N 41°12' W 072°11'1010.0
2015-Aug-01 10:34N 41°21' W 072°06'1 0.1
2015-Aug-01 00:34N 41°20' W 072°05'1010.1
2015-Jul-31 23:34N 41°12' W 072°13'10 9.9
2015-Jul-31 22:34N 41°20' W 072°05'9 9.2
2015-Jul-31 21:34N 41°12' W 072°12'1 0.1
2015-Jul-31 12:26N 41°13' W 072°11'5 5.4
2015-Jul-31 11:34N 41°16' W 072°06'2 0.2
2015-Jul-31 01:34N 41°18' W 072°05'2423.6
2015-Jul-31 00:34N 41°15' W 071°34'7 7.4
2015-Jul-30 23:34N 41°15' W 071°44'1817.7
2015-Jul-30 22:33N 41°21' W 072°06'1616.5
2015-Jul-30 21:34N 41°17' W 071°44'1010.4
2015-Jul-30 20:34N 41°11' W 071°33'2524.9
2015-Jul-30 19:34N 41°19' W 072°05'7 6.6
2015-Jul-30 18:34N 41°18' W 071°56'1918.5
2015-Jul-30 17:33N 41°10' W 071°33'1616.2
2015-Jul-30 16:34N 41°15' W 071°54'1110.9
2015-Jul-30 15:33N 41°21' W 072°06'1 1.5
2015-Jul-30 14:34N 41°20' W 072°05'1010.3
2015-Jul-30 13:34N 41°11' W 072°13'1010.3
2015-Jul-30 12:34N 41°20' W 072°05'7 7.0
2015-Jul-30 11:34N 41°14' W 072°10'8 8.0
2015-Jul-30 10:33N 41°21' W 072°06'1 0.1
2015-Jul-30 00:34N 41°21' W 072°05'7 7.2
2015-Jul-29 23:34N 41°14' W 072°10'7 7.0
2015-Jul-29 22:33N 41°20' W 072°05'9 9.5
2015-Jul-29 21:33N 41°12' W 072°12'1010.2
2015-Jul-29 20:33N 41°21' W 072°06'0 0.0
2015-Jul-29 19:33N 41°21' W 072°06'0 0.0
2015-Jul-29 18:33N 41°21' W 072°06'1312.9
2015-Jul-29 17:33N 41°09' W 072°12'1312.6
2015-Jul-29 16:33N 41°21' W 072°05'0 0.4
2015-Jul-29 15:33N 41°21' W 072°06'7 6.9
2015-Jul-29 14:34N 41°15' W 072°08'2 1.9
2015-Jul-29 13:34N 41°16' W 072°07'2 1.9
2015-Jul-29 12:33N 41°18' W 072°05'8 8.1
2015-Jul-29 11:34N 41°12' W 072°12'1110.8
2015-Jul-29 10:33N 41°21' W 072°06'1 0.1
2015-Jul-29 00:33N 41°20' W 072°05'1010.4
2015-Jul-28 23:34N 41°12' W 072°13'1010.3
2015-Jul-28 22:34N 41°20' W 072°05'9 8.6
2015-Jul-28 21:34N 41°13' W 072°11'9 9.4
2015-Jul-28 20:34N 41°21' W 072°06'1 0.2
2015-Jul-28 14:34N 41°20' W 072°05'9 9.1
2015-Jul-28 13:34N 41°13' W 072°12'9 9.3
2015-Jul-28 12:34N 41°20' W 072°05'9 8.8
2015-Jul-28 11:34N 41°13' W 072°12'9 0.8
2015-Jul-28 00:33N 41°20' W 072°05'1010.0
2015-Jul-27 23:34N 41°12' W 072°12'1010.0
2015-Jul-27 22:33N 41°20' W 072°05'9 8.8
2015-Jul-27 21:34N 41°13' W 072°11'9 9.5
2015-Jul-27 20:33N 41°21' W 072°06'0 0.0
2015-Jul-27 19:34N 41°21' W 072°06'4 0.8
2015-Jul-27 14:34N 41°17' W 072°05'5 4.8
2015-Jul-27 13:29N 41°14' W 072°10'8 8.2
2015-Jul-27 12:34N 41°20' W 072°05'7 0.6
2015-Jul-27 00:16N 41°14' W 072°10'  
2015-Jul-24 12:16N 41°21' W 072°06'0 0.0
2015-Jul-24 11:34N 41°21' W 072°06'0 0.0
2015-Jul-24 10:33N 41°21' W 072°06'1 0.1
2015-Jul-24 00:34N 41°20' W 072°05'9 9.4
2015-Jul-23 23:34N 41°12' W 072°12'9 9.3
2015-Jul-23 22:34N 41°20' W 072°05'7 7.3
2015-Jul-23 21:34N 41°14' W 072°10'8 8.4
2015-Jul-23 20:33N 41°21' W 072°06'0 0.0
2015-Jul-23 19:33N 41°21' W 072°06'0 0.0
2015-Jul-23 18:33N 41°21' W 072°06'0 0.0
2015-Jul-23 17:34N 41°21' W 072°06'0 0.0
2015-Jul-23 16:34N 41°21' W 072°06'0 0.0
2015-Jul-23 15:34N 41°21' W 072°06'2 2.5
2015-Jul-23 14:34N 41°19' W 072°05'8 8.3
2015-Jul-23 13:34N 41°13' W 072°12'8 8.1
2015-Jul-23 12:34N 41°19' W 072°05'7 7.5
2015-Jul-23 11:34N 41°13' W 072°11'9 9.5
2015-Jul-23 10:33N 41°21' W 072°06'1 0.1
2015-Jul-23 00:33N 41°20' W 072°05'9 9.3
2015-Jul-22 23:34N 41°12' W 072°11'9 9.4
2015-Jul-22 22:33N 41°20' W 072°05'10 9.6
2015-Jul-22 21:34N 41°12' W 072°12'1010.2
2015-Jul-22 20:33N 41°21' W 072°06'0 0.0
2015-Jul-22 19:33N 41°21' W 072°06'2 1.9
2015-Jul-22 18:34N 41°20' W 072°05'1110.9
2015-Jul-22 17:34N 41°09' W 072°09'1312.6
2015-Jul-22 16:33N 41°21' W 072°05'  

Dump ship's entire track history